createdAt,value
2022-08-06T00:00:08.493Z,94435.22
2022-08-06T00:02:36.888Z,94441.34
2022-08-06T00:05:06.010Z,94445.94
2022-08-06T00:07:44.709Z,94445.13
2022-08-06T00:10:12.612Z,94449.38
2022-08-06T00:12:40.305Z,94452.06
2022-08-06T00:15:13.646Z,94455.56
2022-08-06T00:17:46.224Z,94457.44
2022-08-06T00:20:25.748Z,94450.47
2022-08-06T00:23:01.518Z,94454.25
2022-08-06T00:25:28.559Z,94454.25
2022-08-06T00:27:55.392Z,94452.66
2022-08-06T00:30:23.843Z,94456.41
2022-08-06T00:32:52.066Z,94447.88
2022-08-06T00:35:21.730Z,94451.06
2022-08-06T00:37:57.097Z,94452.66
2022-08-06T00:40:29.647Z,94456.41
2022-08-06T00:43:00.964Z,94452.13
2022-08-06T00:45:32.551Z,94456.41
2022-08-06T00:48:02.977Z,94453.22
2022-08-06T00:50:31.607Z,94453.22
2022-08-06T00:52:58.542Z,94450.56
2022-08-06T00:55:32.376Z,94454.81
2022-08-06T00:58:06.134Z,94451.63
2022-08-06T01:00:37.052Z,94453.22
2022-08-06T01:03:05.807Z,94457.00
2022-08-06T01:06:04.646Z,94458.59
2022-08-06T01:08:19.581Z,94451.63
2022-08-06T01:10:46.255Z,94451.63
2022-08-06T01:13:23.298Z,94450.81
2022-08-06T01:16:32.695Z,94443.88
2022-08-06T01:19:51.031Z,94451.63
2022-08-06T01:22:43.592Z,94445.47
2022-08-06T01:25:23.688Z,94448.41
2022-08-06T01:28:16.178Z,94450.00
2022-08-06T01:30:53.547Z,94446.28
2022-08-06T01:33:31.017Z,94449.22
2022-08-06T01:36:01.400Z,94442.78
2022-08-06T01:38:32.575Z,94443.88
2022-08-06T01:41:05.549Z,94440.38
2022-08-06T01:44:05.888Z,94442.28
2022-08-06T01:46:19.347Z,94444.66
2022-08-06T01:48:46.022Z,94437.69
2022-08-06T01:52:10.965Z,94441.47
2022-08-06T01:54:06.888Z,94436.13
2022-08-06T01:56:57.034Z,94440.69
2022-08-06T01:59:26.358Z,94437.19
2022-08-06T02:01:55.268Z,94433.44
2022-08-06T02:04:23.643Z,94428.38
2022-08-06T02:06:53.873Z,94424.88
2022-08-06T02:09:27.625Z,94430.75
2022-08-06T02:12:02.284Z,94416.06
2022-08-06T02:14:31.599Z,94420.34
2022-08-06T02:16:58.492Z,94418.44
2022-08-06T02:19:59.803Z,94422.50
2022-08-06T02:22:30.499Z,94404.56
2022-08-06T02:25:02.421Z,94406.16
2022-08-06T02:27:43.873Z,94401.88
2022-08-06T02:30:15.991Z,94404.56
2022-08-06T02:32:45.532Z,94399.19
2022-08-06T02:35:12.733Z,94410.72
2022-08-06T02:38:02.946Z,94402.16
2022-08-06T02:40:39.935Z,94408.31
2022-08-06T02:43:45.641Z,94405.63
2022-08-06T02:46:20.520Z,94416.34
2022-08-06T02:48:50.582Z,94405.91
2022-08-06T02:52:12.801Z,94416.34
2022-08-06T02:54:46.142Z,94417.44
2022-08-06T02:57:15.577Z,94421.19
2022-08-06T02:59:46.991Z,94420.88
2022-08-06T03:02:20.539Z,94435.09
2022-08-06T03:04:56.895Z,94434.28
2022-08-06T03:07:29.333Z,94427.34
2022-08-06T03:09:57.573Z,94438.03
2022-08-06T03:12:29.240Z,94438.84
2022-08-06T03:15:05.965Z,94438.84
2022-08-06T03:17:36.782Z,94433.50
2022-08-06T03:20:03.808Z,94437.25
2022-08-06T03:22:35.756Z,94435.66
2022-08-06T03:25:11.489Z,94438.34
2022-08-06T03:27:43.457Z,94439.94
2022-08-06T03:30:30.646Z,94436.44
2022-08-06T03:33:07.390Z,94434.59
2022-08-06T03:35:51.235Z,94427.34
2022-08-06T03:38:18.049Z,94428.16
2022-08-06T03:40:45.175Z,94434.06
2022-08-06T03:43:16.380Z,94432.69
2022-08-06T03:45:55.934Z,94430.31
2022-08-06T03:48:36.299Z,94431.91
2022-08-06T03:51:11.557Z,94431.91
2022-08-06T03:53:44.741Z,94436.44
2022-08-06T03:56:17.049Z,94432.69
2022-08-06T03:58:44.388Z,94439.63
2022-08-06T04:01:13.329Z,94427.34
2022-08-06T04:03:40.176Z,94434.59
2022-08-06T04:06:16.408Z,94445.75
2022-08-06T04:08:46.766Z,94444.88
2022-08-06T04:12:13.282Z,94459.03
2022-08-06T04:14:07.340Z,94450.41
2022-08-06T04:16:35.973Z,94449.84
2022-08-06T04:19:05.601Z,94457.00
2022-08-06T04:23:05.168Z,94445.50
2022-08-06T04:24:23.585Z,94446.53
2022-08-06T04:26:57.448Z,94452.38
2022-08-06T04:29:24.640Z,94451.03
2022-08-06T04:32:12.375Z,94449.16
2022-08-06T04:36:02.645Z,94458.25
2022-08-06T04:37:30.502Z,94453.66
2022-08-06T04:40:13.121Z,94456.06
2022-08-06T04:42:42.314Z,94463.81
2022-08-06T04:46:15.939Z,94471.56
2022-08-06T04:47:56.081Z,94471.56
2022-08-06T04:50:23.120Z,94468.59
2022-08-06T04:52:50.969Z,94471.78
2022-08-06T04:55:25.273Z,94468.84
2022-08-06T04:58:08.213Z,94472.03
2022-08-06T05:01:03.341Z,94472.53
2022-08-06T05:04:07.466Z,94478.66
2022-08-06T05:06:23.777Z,94476.81
2022-08-06T05:09:10.770Z,94470.34
2022-08-06T05:11:58.375Z,94474.34
2022-08-06T05:15:01.879Z,94483.16
2022-08-06T05:17:34.738Z,94484.22
2022-08-06T05:20:06.081Z,94481.22
2022-08-06T05:22:54.380Z,94486.00
2022-08-06T05:25:22.258Z,94477.69
2022-08-06T05:28:04.034Z,94476.00
2022-08-06T05:30:49.863Z,94484.00
2022-08-06T05:33:41.919Z,94480.72
2022-08-06T05:36:19.866Z,94480.72
2022-08-06T05:38:51.962Z,94486.31
2022-08-06T05:41:26.256Z,94481.75
2022-08-06T05:43:57.727Z,94486.00
2022-08-06T05:46:30.092Z,94490.00
2022-08-06T05:49:00.874Z,94477.38
2022-08-06T05:51:51.915Z,94489.94
2022-08-06T05:54:24.525Z,94489.16
2022-08-06T05:56:53.888Z,94481.59
2022-08-06T05:59:37.811Z,94482.38
2022-08-06T06:02:05.599Z,94471.66
2022-08-06T06:04:34.025Z,94479.41
2022-08-06T06:07:04.451Z,94474.88
2022-08-06T06:09:56.206Z,94471.91
2022-08-06T06:12:18.995Z,94476.47
2022-08-06T06:14:49.601Z,94477.78
2022-08-06T06:17:39.718Z,94474.00
2022-08-06T06:20:15.800Z,94479.91
2022-08-06T06:23:20.415Z,94470.75
2022-08-06T06:26:02.020Z,94471.25
2022-08-06T06:28:46.995Z,94469.34
2022-08-06T06:32:07.665Z,94470.16
2022-08-06T06:35:04.360Z,94466.41
2022-08-06T06:38:11.987Z,94471.75
2022-08-06T06:41:03.172Z,94466.41
2022-08-06T06:44:17.437Z,94461.03
2022-08-06T06:47:07.705Z,94453.75
2022-08-06T06:50:02.843Z,94451.88
2022-08-06T06:52:42.062Z,94459.13
2022-08-06T06:55:36.883Z,94458.34
2022-08-06T06:58:34.171Z,94451.88
2022-08-06T07:01:14.553Z,94444.72
2022-08-06T07:03:47.495Z,94453.47
2022-08-06T07:06:31.788Z,94446.03
2022-08-06T07:09:12.177Z,94444.13
2022-08-06T07:12:01.627Z,94447.63
2022-08-06T07:14:28.002Z,94448.41
2022-08-06T07:17:00.442Z,94448.72
2022-08-06T07:19:30.985Z,94450.28
2022-08-06T07:21:57.710Z,94440.66
2022-08-06T07:24:38.137Z,94437.16
2022-08-06T07:27:08.380Z,94432.59
2022-08-06T07:29:49.625Z,94429.94
2022-08-06T07:32:31.401Z,94425.66
2022-08-06T07:34:59.485Z,94424.06
2022-08-06T07:37:38.342Z,94426.25
2022-08-06T07:40:07.626Z,94424.06
2022-08-06T07:42:35.150Z,94417.09
2022-08-06T07:45:04.102Z,94423.56
2022-08-06T07:47:46.779Z,94419.28
2022-08-06T07:50:23.537Z,94414.19
2022-08-06T07:52:51.584Z,94419.84
2022-08-06T07:55:19.510Z,94420.94
2022-08-06T07:57:54.696Z,94417.72
2022-08-06T08:00:23.754Z,94418.81
2022-08-06T08:03:10.573Z,94414.03
2022-08-06T08:06:00.541Z,94415.63
2022-08-06T08:08:28.444Z,94412.44
2022-08-06T08:10:55.072Z,94410.88
2022-08-06T08:13:40.821Z,94413.00
2022-08-06T08:16:08.952Z,94416.78
2022-08-06T08:18:35.875Z,94414.09
2022-08-06T08:21:04.260Z,94412.50
2022-08-06T08:23:37.420Z,94423.25
2022-08-06T08:26:07.373Z,94412.00
2022-08-06T08:28:36.384Z,94412.00
2022-08-06T08:31:11.176Z,94416.59
2022-08-06T08:33:47.384Z,94411.22
2022-08-06T08:36:14.072Z,94404.28
2022-08-06T08:38:42.682Z,94409.66
2022-08-06T08:41:21.789Z,94408.84
2022-08-06T08:44:00.420Z,94415.00
2022-08-06T08:46:33.388Z,94406.44
2022-08-06T08:49:07.378Z,94403.25
2022-08-06T08:51:41.951Z,94407.25
2022-08-06T08:54:10.492Z,94404.84
2022-08-06T08:57:06.554Z,94404.06
2022-08-06T08:59:57.373Z,94403.25
2022-08-06T09:02:17.976Z,94406.25
2022-08-06T09:04:45.537Z,94401.66
2022-08-06T09:07:25.489Z,94400.88
2022-08-06T09:10:01.272Z,94407.81
2022-08-06T09:12:34.345Z,94396.59
2022-08-06T09:15:04.625Z,94399.28
2022-08-06T09:18:25.462Z,94396.88
2022-08-06T09:20:17.888Z,94398.47
2022-08-06T09:22:50.231Z,94390.72
2022-08-06T09:25:51.247Z,94395.50
2022-08-06T09:28:31.732Z,94392.34
2022-08-06T09:31:10.529Z,94388.84
2022-08-06T09:34:28.481Z,94383.75
2022-08-06T09:36:48.267Z,94378.41
2022-08-06T09:39:22.906Z,94383.75
2022-08-06T09:41:51.931Z,94388.56
2022-08-06T09:44:35.691Z,94383.75
2022-08-06T09:47:06.550Z,94387.53
2022-08-06T09:50:00.517Z,94383.25
2022-08-06T09:52:27.957Z,94379.78
2022-08-06T09:54:54.869Z,94378.97
2022-08-06T09:57:34.965Z,94380.56
2022-08-06T10:00:04.738Z,94380.56
2022-08-06T10:02:36.251Z,94376.31
2022-08-06T10:05:19.632Z,94373.34
2022-08-06T10:07:52.942Z,94373.63
2022-08-06T10:10:40.421Z,94370.44
2022-08-06T10:13:16.995Z,94367.16
2022-08-06T10:16:00.345Z,94364.50
2022-08-06T10:18:56.836Z,94360.72
2022-08-06T10:21:40.077Z,94360.72
2022-08-06T10:24:08.732Z,94353.75
2022-08-06T10:26:35.483Z,94359.13
2022-08-06T10:29:07.449Z,94357.53
2022-08-06T10:31:36.046Z,94360.72
2022-08-06T10:34:17.108Z,94354.56
2022-08-06T10:37:03.606Z,94358.03
2022-08-06T10:40:08.076Z,94343.84
2022-08-06T10:42:26.211Z,94351.59
2022-08-06T10:44:54.008Z,94346.81
2022-08-06T10:48:59.746Z,94344.63
2022-08-06T10:50:29.866Z,94333.41
2022-08-06T10:52:55.711Z,94336.09
2022-08-06T10:55:23.430Z,94343.03
2022-08-06T10:57:51.583Z,94338.50
2022-08-06T11:00:21.582Z,94337.69
2022-08-06T11:03:25.885Z,94337.69
2022-08-06T11:05:59.424Z,94337.69
2022-08-06T11:08:59.353Z,94336.91
2022-08-06T11:12:05.841Z,94332.31
2022-08-06T11:14:38.081Z,94326.94
2022-08-06T11:17:08.212Z,94333.91
2022-08-06T11:19:47.026Z,94327.75
2022-08-06T11:22:39.159Z,94321.59
2022-08-06T11:25:14.085Z,94320.22
2022-08-06T11:27:51.441Z,94314.84
2022-08-06T11:30:26.410Z,94319.41
2022-08-06T11:32:53.703Z,94319.41
2022-08-06T11:35:36.367Z,94321.59
2022-08-06T11:38:25.083Z,94332.31
2022-08-06T11:41:11.983Z,94330.72
2022-08-06T11:44:04.494Z,94320.00
2022-08-06T11:46:36.545Z,94326.16
2022-08-06T11:49:18.206Z,94329.13
2022-08-06T11:52:05.787Z,94320.00
2022-08-06T11:54:57.401Z,94316.22
2022-08-06T11:57:41.719Z,94326.66
2022-08-06T12:00:15.400Z,94328.03
2022-08-06T12:02:44.249Z,94319.22
2022-08-06T12:05:19.285Z,94320.81
2022-08-06T12:08:14.817Z,94318.41
2022-08-06T12:11:28.615Z,94309.28
2022-08-06T12:14:32.131Z,94303.41
2022-08-06T12:16:53.545Z,94303.13
2022-08-06T12:19:21.162Z,94303.69
2022-08-06T12:21:52.395Z,94301.53
2022-08-06T12:24:23.779Z,94302.91
2022-08-06T12:26:50.375Z,94309.38
2022-08-06T12:29:17.005Z,94311.25
2022-08-06T12:31:50.822Z,94303.19
2022-08-06T12:34:27.646Z,94299.72
2022-08-06T12:36:54.639Z,94310.97
2022-08-06T12:39:45.638Z,94304.00
2022-08-06T12:42:52.083Z,94304.50
2022-08-06T12:45:32.840Z,94288.41
2022-08-06T12:48:11.208Z,94291.09
2022-08-06T12:50:43.146Z,94292.69
2022-08-06T12:53:20.631Z,94289.19
2022-08-06T12:55:56.889Z,94291.09
2022-08-06T12:58:42.461Z,94286.81
2022-08-06T13:01:13.298Z,94281.47
2022-08-06T13:03:49.315Z,94287.09
2022-08-06T13:06:32.498Z,94286.34
2022-08-06T13:09:03.557Z,94282.06
2022-08-06T13:11:34.896Z,94279.38
2022-08-06T13:14:17.444Z,94277.47
2022-08-06T13:16:55.142Z,94286.34
2022-08-06T13:19:33.284Z,94287.91
2022-08-06T13:22:09.319Z,94278.28
2022-08-06T13:24:36.248Z,94269.16
2022-08-06T13:27:34.653Z,94266.47
2022-08-06T13:30:30.944Z,94269.16
2022-08-06T13:32:49.009Z,94276.69
2022-08-06T13:35:20.560Z,94266.47
2022-08-06T13:37:55.884Z,94269.16
2022-08-06T13:40:46.186Z,94263.78
2022-08-06T13:43:39.986Z,94269.16
2022-08-06T13:46:16.714Z,94260.81
2022-08-06T13:48:52.394Z,94254.16
2022-08-06T13:51:27.053Z,94253.06
2022-08-06T13:53:57.217Z,94258.44
2022-08-06T13:56:29.146Z,94249.28
2022-08-06T13:59:00.516Z,94256.25
2022-08-06T14:01:34.713Z,94253.06
2022-08-06T14:04:10.682Z,94249.28
2022-08-06T14:06:41.467Z,94255.75
2022-08-06T14:09:19.318Z,94255.44
2022-08-06T14:11:51.310Z,94246.63
2022-08-06T14:14:21.807Z,94243.94
2022-08-06T14:16:49.824Z,94245.03
2022-08-06T14:20:15.769Z,94247.72
2022-08-06T14:22:04.223Z,94249.28
2022-08-06T14:24:35.281Z,94249.28
2022-08-06T14:27:14.739Z,94246.63
2022-08-06T14:30:31.943Z,94248.50
2022-08-06T14:32:28.717Z,94254.66
2022-08-06T14:34:57.136Z,94250.88
2022-08-06T14:37:23.815Z,94250.38
2022-08-06T14:40:13.714Z,94249.28
2022-08-06T14:43:18.447Z,94247.72
2022-08-06T14:45:47.055Z,94246.91
2022-08-06T14:48:16.016Z,94240.75
2022-08-06T14:50:45.071Z,94251.66
2022-08-06T14:53:16.253Z,94245.03
2022-08-06T14:56:07.036Z,94254.66
2022-08-06T14:58:30.574Z,94240.75
2022-08-06T15:00:57.625Z,94235.41
2022-08-06T15:03:27.813Z,94235.41
2022-08-06T15:06:06.536Z,94231.13
2022-08-06T15:08:35.806Z,94248.81
2022-08-06T15:11:06.466Z,94238.34
2022-08-06T15:13:44.756Z,94241.84
2022-08-06T15:16:48.165Z,94237.59
2022-08-06T15:19:19.786Z,94244.53
2022-08-06T15:21:55.015Z,94242.94
2022-08-06T15:24:25.357Z,94237.59
2022-08-06T15:26:55.073Z,94239.16
2022-08-06T15:29:25.570Z,94237.59
2022-08-06T15:31:52.349Z,94233.81
2022-08-06T15:34:19.580Z,94231.13
2022-08-06T15:36:59.212Z,94233.50
2022-08-06T15:39:53.109Z,94237.75
2022-08-06T15:42:17.742Z,94234.31
2022-08-06T15:44:44.813Z,94235.41
2022-08-06T15:47:11.459Z,94233.22
2022-08-06T15:50:03.451Z,94239.66
2022-08-06T15:52:28.293Z,94240.75
2022-08-06T15:54:57.941Z,94236.97
2022-08-06T15:57:50.212Z,94240.75
2022-08-06T16:00:17.027Z,94239.94
2022-08-06T16:02:50.349Z,94229.22
2022-08-06T16:05:32.606Z,94227.34
2022-08-06T16:08:05.454Z,94232.41
2022-08-06T16:10:34.800Z,94239.16
2022-08-06T16:13:01.724Z,94240.75
2022-08-06T16:15:29.876Z,94234.59
2022-08-06T16:18:08.599Z,94239.66
2022-08-06T16:20:47.661Z,94240.75
2022-08-06T16:23:55.532Z,94236.19
2022-08-06T16:26:15.254Z,94240.75
2022-08-06T16:28:49.522Z,94240.25
2022-08-06T16:31:16.290Z,94240.25
2022-08-06T16:33:54.572Z,94242.94
2022-08-06T16:36:32.691Z,94239.16
2022-08-06T16:39:00.467Z,94244.53
2022-08-06T16:41:58.537Z,94242.94
2022-08-06T16:44:14.209Z,94240.25
2022-08-06T16:46:43.645Z,94243.72
2022-08-06T16:49:11.734Z,94243.72
2022-08-06T16:52:43.539Z,94244.53
2022-08-06T16:54:35.653Z,94243.72
2022-08-06T16:57:11.181Z,94249.91
2022-08-06T16:59:42.390Z,94251.75
2022-08-06T17:02:28.514Z,94256.03
2022-08-06T17:04:55.299Z,94255.25
2022-08-06T17:07:40.482Z,94255.25
2022-08-06T17:10:24.791Z,94246.41
2022-08-06T17:12:57.477Z,94256.03
2022-08-06T17:18:11.587Z,94255.25
2022-08-06T17:20:40.452Z,94259.53
2022-08-06T17:23:07.358Z,94259.03
2022-08-06T17:25:51.359Z,94259.81
2022-08-06T17:28:18.566Z,94254.44
2022-08-06T17:30:46.403Z,94259.81
2022-08-06T17:33:19.568Z,94258.22
2022-08-06T17:36:31.693Z,94259.03
2022-08-06T17:38:36.235Z,94259.03
2022-08-06T17:41:03.380Z,94256.34
2022-08-06T17:43:56.096Z,94263.28
2022-08-06T17:46:25.657Z,94262.22
2022-08-06T17:48:54.014Z,94252.03
2022-08-06T17:51:22.203Z,94257.41
2022-08-06T17:53:53.760Z,94263.56
2022-08-06T17:56:30.699Z,94256.34
2022-08-06T17:59:16.790Z,94254.72
2022-08-06T18:01:49.217Z,94258.50
2022-08-06T18:04:22.135Z,94264.38
2022-08-06T18:06:58.329Z,94254.72
2022-08-06T18:10:08.963Z,94262.78
2022-08-06T18:12:12.556Z,94265.75
2022-08-06T18:14:40.976Z,94272.44
2022-08-06T18:17:08.217Z,94262.78
2022-08-06T18:19:44.137Z,94268.13
2022-08-06T18:22:21.385Z,94262.78
2022-08-06T18:24:51.631Z,94272.44
2022-08-06T18:27:55.613Z,94278.06
2022-08-06T18:30:11.091Z,94274.31
2022-08-06T18:32:57.012Z,94285.03
2022-08-06T18:35:27.087Z,94280.75
2022-08-06T18:38:04.060Z,94288.78
2022-08-06T18:40:38.681Z,94291.47
2022-08-06T18:43:08.985Z,94300.31
2022-08-06T18:45:36.958Z,94307.28
2022-08-06T18:48:07.394Z,94300.31
2022-08-06T18:50:34.615Z,94306.47
2022-08-06T18:53:02.953Z,94305.66
2022-08-06T18:55:39.848Z,94316.38
2022-08-06T18:58:20.160Z,94317.19
2022-08-06T19:00:51.531Z,94317.19
2022-08-06T19:03:19.591Z,94313.69
2022-08-06T19:05:51.357Z,94314.50
2022-08-06T19:08:28.951Z,94315.59
2022-08-06T19:10:58.229Z,94314.78
2022-08-06T19:13:55.148Z,94315.59
2022-08-06T19:16:14.478Z,94319.06
2022-08-06T19:18:45.992Z,94323.66
2022-08-06T19:21:17.885Z,94319.06
2022-08-06T19:24:02.918Z,94320.16
2022-08-06T19:26:32.990Z,94325.22
2022-08-06T19:29:01.902Z,94320.16
2022-08-06T19:31:42.452Z,94325.50
2022-08-06T19:34:15.735Z,94321.75
2022-08-06T19:36:48.258Z,94326.31
2022-08-06T19:39:52.801Z,94326.31
2022-08-06T19:42:06.359Z,94332.47
2022-08-06T19:45:04.790Z,94332.47
2022-08-06T19:47:39.638Z,94335.16
2022-08-06T19:50:06.697Z,94328.19
2022-08-06T19:52:38.402Z,94325.50
2022-08-06T19:56:07.177Z,94323.94
2022-08-06T19:57:52.872Z,94320.16
2022-08-06T20:00:53.204Z,94326.31
2022-08-06T20:03:08.023Z,94321.75
2022-08-06T20:06:19.966Z,94325.50
2022-08-06T20:08:32.292Z,94320.97
2022-08-06T20:11:01.616Z,94325.50
2022-08-06T20:13:29.047Z,94320.16
2022-08-06T20:15:56.978Z,94319.38
2022-08-06T20:18:23.812Z,94322.84
2022-08-06T20:20:54.717Z,94319.38
2022-08-06T20:23:27.267Z,94320.97
2022-08-06T20:26:10.547Z,94322.84
2022-08-06T20:29:07.181Z,94321.75
2022-08-06T20:31:31.205Z,94320.16
2022-08-06T20:34:00.288Z,94318.56
2022-08-06T20:36:31.387Z,94325.50
2022-08-06T20:38:58.438Z,94329.00
2022-08-06T20:41:58.882Z,94325.50
2022-08-06T20:44:12.219Z,94322.84
2022-08-06T20:47:00.834Z,94324.44
2022-08-06T20:49:28.994Z,94325.50
2022-08-06T20:51:56.622Z,94325.50
2022-08-06T20:54:26.269Z,94323.16
2022-08-06T20:56:59.493Z,94327.41
2022-08-06T20:59:33.585Z,94321.25
2022-08-06T21:02:04.387Z,94324.72
2022-08-06T21:05:15.560Z,94331.19
2022-08-06T21:07:21.213Z,94335.75
2022-08-06T21:10:04.999Z,94328.19
2022-08-06T21:12:58.544Z,94335.47
2022-08-06T21:15:54.198Z,94329.28
2022-08-06T21:18:20.377Z,94334.66
2022-08-06T21:20:51.221Z,94336.25
2022-08-06T21:23:21.396Z,94335.16
2022-08-06T21:26:15.337Z,94338.41
2022-08-06T21:28:54.318Z,94337.63
2022-08-06T21:31:22.946Z,94338.91
2022-08-06T21:33:54.422Z,94337.31
2022-08-06T21:36:25.827Z,94337.63
2022-08-06T21:38:53.242Z,94338.41
2022-08-06T21:41:29.492Z,94340.00
2022-08-06T21:44:14.640Z,94345.38
2022-08-06T21:46:49.868Z,94337.63
2022-08-06T21:49:58.541Z,94338.41
2022-08-06T21:52:04.406Z,94343.00
2022-08-06T21:54:31.422Z,94348.06
2022-08-06T21:56:58.318Z,94345.38
2022-08-06T21:59:38.075Z,94341.91
2022-08-06T22:02:21.224Z,94345.38
2022-08-06T22:04:59.143Z,94349.94
2022-08-06T22:08:05.131Z,94346.47
2022-08-06T22:10:32.632Z,94345.38
2022-08-06T22:13:12.260Z,94342.69
2022-08-06T22:15:46.959Z,94340.31
2022-08-06T22:18:18.945Z,94338.41
2022-08-06T22:20:55.051Z,94337.63
2022-08-06T22:23:21.783Z,94339.50
2022-08-06T22:25:49.971Z,94343.78
2022-08-06T22:28:24.078Z,94340.00
2022-08-06T22:31:05.601Z,94338.41
2022-08-06T22:33:45.846Z,94339.50
2022-08-06T22:36:34.442Z,94341.09
2022-08-06T22:39:02.892Z,94339.22
2022-08-06T22:41:57.423Z,94347.56
2022-08-06T22:44:30.724Z,94344.88
2022-08-06T22:47:03.759Z,94347.56
2022-08-06T22:49:36.473Z,94352.91
2022-08-06T22:52:04.725Z,94347.56
2022-08-06T22:54:58.076Z,94348.63
2022-08-06T22:57:24.423Z,94343.78
2022-08-06T23:00:11.866Z,94347.56
2022-08-06T23:02:38.155Z,94349.13
2022-08-06T23:05:05.432Z,94347.56
2022-08-06T23:07:43.539Z,94337.91
2022-08-06T23:10:21.082Z,94336.03
2022-08-06T23:12:47.786Z,94336.31
2022-08-06T23:15:29.733Z,94339.81
2022-08-06T23:18:04.119Z,94340.59
2022-08-06T23:20:35.525Z,94335.25
2022-08-06T23:23:02.795Z,94343.00
2022-08-06T23:26:00.427Z,94337.91
2022-08-06T23:28:17.890Z,94345.97
2022-08-06T23:30:44.646Z,94340.59
2022-08-06T23:33:11.401Z,94340.59
2022-08-06T23:35:38.361Z,94339.00
2022-08-06T23:38:31.953Z,94331.78
2022-08-06T23:40:55.856Z,94339.00
2022-08-06T23:43:25.438Z,94332.84
2022-08-06T23:45:57.541Z,94330.47
2022-08-06T23:48:27.701Z,94341.69
2022-08-06T23:50:54.854Z,94337.41
2022-08-06T23:54:06.670Z,94333.66
2022-08-06T23:56:10.178Z,94337.41
2022-08-06T23:58:38.041Z,94337.13
